Time;durP1;ratioP1;P1;durP2;ratioP2;P2;SDS_P1;SDS_P2;PMS_P1;PMS_P2;Temp;Humidity;BMP_temperature;BMP_pressure;BME280_temperature;BME280_humidity;BME280_pressure;Samples;Min_cycle;Max_cycle;Signal;HPM_P1;HPM_P2
2023/06/10 00:00:17;;;;;;;10.75;6.68;;;;;;;23.78;46.25;101287.44;5117640;28;20491;-62
2023/06/10 00:02:43;;;;;;;11.30;6.75;;;;;;;23.66;46.60;101286.94;5117307;28;20380;-62
2023/06/10 00:05:09;;;;;;;10.27;6.50;;;;;;;23.67;47.19;101285.13;5117265;28;20020;-62
2023/06/10 00:07:37;;;;;;;9.10;6.40;;;;;;;23.61;46.77;101275.41;5117538;28;20031;-62
2023/06/10 00:10:05;;;;;;;10.57;6.75;;;;;;;23.70;46.51;101294.00;5117019;28;20023;-62
2023/06/10 00:12:36;;;;;;;9.50;6.60;;;;;;;23.62;46.81;101287.97;5116994;28;20080;-62
2023/06/10 00:15:03;;;;;;;7.68;6.28;;;;;;;23.60;46.68;101292.56;5098821;28;20039;-62
2023/06/10 00:17:28;;;;;;;10.93;6.88;;;;;;;23.67;46.44;101286.00;5116794;28;20037;-62
2023/06/10 00:19:55;;;;;;;8.07;6.45;;;;;;;23.68;46.77;101293.19;5117186;28;20023;-62
2023/06/10 00:22:22;;;;;;;9.20;6.88;;;;;;;23.67;46.55;101288.72;5116860;28;20058;-62
2023/06/10 00:24:47;;;;;;;8.80;6.43;;;;;;;23.61;46.48;101297.00;5116895;28;20118;-62
2023/06/10 00:27:13;;;;;;;8.43;6.65;;;;;;;23.62;46.46;101292.47;5116280;28;20127;-61
2023/06/10 00:29:39;;;;;;;10.85;6.80;;;;;;;23.51;46.64;101287.50;5116722;28;20026;-62
2023/06/10 00:32:05;;;;;;;10.35;6.90;;;;;;;23.54;46.45;101291.88;5098781;28;20031;-62
2023/06/10 00:34:32;;;;;;;11.27;6.90;;;;;;;23.47;46.76;101289.41;5116918;28;20020;-62
2023/06/10 00:36:57;;;;;;;10.32;6.88;;;;;;;23.47;47.16;101296.63;5116715;28;20079;-62
2023/06/10 00:39:23;;;;;;;8.93;6.75;;;;;;;23.42;47.00;101294.06;5116469;28;20024;-62
2023/06/10 00:41:48;;;;;;;9.65;7.15;;;;;;;23.34;47.38;101300.66;5098232;28;20081;-62
2023/06/10 00:44:13;;;;;;;10.88;6.75;;;;;;;23.41;47.36;101302.22;5098515;28;20465;-62
2023/06/10 00:46:39;;;;;;;8.82;7.00;;;;;;;23.40;47.08;101303.16;5116653;28;20032;-62
2023/06/10 00:49:05;;;;;;;13.30;7.07;;;;;;;23.37;47.06;101300.56;5116306;28;20462;-62
2023/06/10 00:51:31;;;;;;;9.95;6.90;;;;;;;23.32;47.66;101305.25;5116264;28;20118;-62
2023/06/10 00:53:57;;;;;;;12.10;6.57;;;;;;;23.24;47.83;101301.00;5116341;28;20051;-63
2023/06/10 00:56:23;;;;;;;9.95;7.03;;;;;;;23.12;47.88;101298.72;5116245;28;20028;-62
2023/06/10 00:58:48;;;;;;;12.77;6.82;;;;;;;23.10;47.76;101297.91;5114946;28;20020;-62
2023/06/10 01:01:14;;;;;;;9.98;6.93;;;;;;;23.09;48.08;101296.16;5116337;28;20459;-62
2023/06/10 01:03:39;;;;;;;9.23;7.28;;;;;;;22.97;48.35;101291.16;5116411;28;20047;-62
2023/06/10 01:06:29;;;;;;;10.55;7.28;;;;;;;23.06;48.25;101298.06;5116376;28;20059;-62
2023/06/10 01:09:01;;;;;;;8.77;7.20;;;;;;;22.98;47.78;101295.63;5115804;28;20039;-62
2023/06/10 01:11:40;;;;;;;10.18;6.95;;;;;;;22.97;48.13;101299.25;5097903;28;20031;-63
2023/06/10 01:14:07;;;;;;;8.25;6.85;;;;;;;22.83;48.11;101296.97;5115882;28;20035;-62
2023/06/10 01:16:35;;;;;;;10.93;7.32;;;;;;;22.83;48.39;101301.50;5115605;28;20032;-62
2023/06/10 01:19:01;;;;;;;9.65;7.05;;;;;;;22.80;48.09;101307.84;5115795;28;20031;-62
2023/06/10 01:21:26;;;;;;;10.98;6.88;;;;;;;22.73;48.63;101295.50;5115697;28;20023;-63
2023/06/10 01:23:55;;;;;;;10.00;6.85;;;;;;;22.66;49.04;101297.53;5115393;28;20048;-62
2023/06/10 01:26:28;;;;;;;10.25;7.25;;;;;;;22.58;48.62;101299.59;5115976;28;20027;-62
2023/06/10 01:29:07;;;;;;;11.25;7.30;;;;;;;22.59;48.62;101304.03;5115760;28;20032;-62
2023/06/10 01:31:49;;;;;;;11.30;7.10;;;;;;;22.48;48.95;101308.88;5115519;28;20517;-62
2023/06/10 01:34:18;;;;;;;9.18;6.97;;;;;;;22.33;49.21;101306.66;5115879;28;20032;-67
2023/06/10 01:36:48;;;;;;;11.23;7.45;;;;;;;22.29;49.96;101305.00;5115405;28;20031;-63
2023/06/10 01:39:16;;;;;;;8.43;7.13;;;;;;;22.24;50.15;101305.13;5115224;28;20027;-62
2023/06/10 01:41:42;;;;;;;11.25;7.97;;;;;;;22.21;50.92;101308.78;5115491;28;20034;-63
2023/06/10 01:44:08;;;;;;;11.35;8.07;;;;;;;22.24;49.83;101308.72;5115599;28;20031;-62
2023/06/10 01:46:33;;;;;;;10.40;7.50;;;;;;;22.21;50.17;101308.78;5096819;28;20490;-62
2023/06/10 01:48:59;;;;;;;9.65;8.02;;;;;;;22.16;50.46;101309.88;5115492;28;20027;-62
2023/06/10 01:51:24;;;;;;;12.38;8.05;;;;;;;22.14;50.20;101309.94;5097070;28;20050;-62
2023/06/10 01:53:50;;;;;;;11.48;7.60;;;;;;;22.11;50.53;101303.72;5115215;28;20477;-62
2023/06/10 01:56:18;;;;;;;13.90;8.05;;;;;;;22.05;50.84;101303.88;5115190;28;20062;-62
2023/06/10 01:58:44;;;;;;;15.57;8.27;;;;;;;21.97;51.10;101306.81;5115418;28;20051;-62
2023/06/10 02:01:10;;;;;;;13.10;7.45;;;;;;;21.99;51.03;101302.25;5115250;28;20065;-62
2023/06/10 02:03:35;;;;;;;9.50;7.32;;;;;;;21.93;51.69;101313.22;5114978;28;20541;-61
2023/06/10 02:06:01;;;;;;;11.23;7.82;;;;;;;21.90;51.59;101314.16;5114904;28;20032;-62
2023/06/10 02:08:27;;;;;;;12.65;8.30;;;;;;;21.79;51.53;101315.38;5114589;28;20051;-62
2023/06/10 02:10:53;;;;;;;11.13;7.95;;;;;;;21.75;51.94;101315.50;5114967;28;20458;-62
2023/06/10 02:13:18;;;;;;;10.90;8.07;;;;;;;21.69;52.45;101320.16;5114699;28;20023;-62
2023/06/10 02:15:44;;;;;;;8.82;7.32;;;;;;;21.64;52.35;101319.41;5114751;28;20473;-62
2023/06/10 02:18:11;;;;;;;12.80;7.97;;;;;;;21.60;52.89;101315.91;5114540;28;20028;-62
2023/06/10 02:20:37;;;;;;;9.90;8.13;;;;;;;21.49;53.08;101308.13;5097097;28;20107;-62
2023/06/10 02:23:03;;;;;;;11.00;8.65;;;;;;;21.49;53.23;101313.50;5114377;28;20048;-62
2023/06/10 02:25:28;;;;;;;12.93;8.55;;;;;;;21.50;52.86;101312.59;5114591;28;20023;-62
2023/06/10 02:27:54;;;;;;;14.05;8.63;;;;;;;21.45;53.84;101321.69;5114444;28;20152;-62
2023/06/10 02:30:19;;;;;;;14.50;8.52;;;;;;;21.35;53.76;101320.19;5114507;28;20062;-62
2023/06/10 02:32:47;;;;;;;12.60;9.45;;;;;;;21.29;54.29;101326.56;5114309;28;20024;-62
2023/06/10 02:35:17;;;;;;;13.15;7.97;;;;;;;21.27;54.25;101323.91;5114367;28;20614;-62
2023/06/10 02:37:43;;;;;;;12.32;9.20;;;;;;;21.25;54.20;101319.50;5114514;28;20032;-62
2023/06/10 02:40:10;;;;;;;12.25;8.88;;;;;;;21.20;54.65;101325.00;5114127;28;20481;-62
2023/06/10 02:42:35;;;;;;;12.55;9.13;;;;;;;21.21;54.76;101320.50;5114274;28;20039;-62
2023/06/10 02:45:01;;;;;;;16.23;9.57;;;;;;;21.19;54.68;101320.53;5114173;28;20024;-62
2023/06/10 02:47:27;;;;;;;12.10;9.23;;;;;;;21.14;54.78;101317.09;5114130;28;20398;-62
2023/06/10 02:49:52;;;;;;;15.35;9.35;;;;;;;21.06;55.38;101326.25;5114152;28;20051;-62
2023/06/10 02:52:17;;;;;;;11.05;9.15;;;;;;;21.05;55.34;101322.69;5114073;28;20054;-62
2023/06/10 02:54:45;;;;;;;10.57;8.35;;;;;;;21.05;55.43;101322.69;5114079;28;20030;-62
2023/06/10 02:57:11;;;;;;;14.88;9.20;;;;;;;21.04;55.40;101320.06;5114191;28;20396;-62
2023/06/10 02:59:36;;;;;;;11.70;9.70;;;;;;;21.05;55.48;101329.88;5113952;28;20098;-62
2023/06/10 03:02:01;;;;;;;12.60;9.30;;;;;;;21.08;55.56;101321.75;5113900;28;20023;-61
2023/06/10 03:04:28;;;;;;;11.77;9.20;;;;;;;20.93;55.96;101328.38;5113851;28;20024;-62
2023/06/10 03:06:54;;;;;;;12.73;9.32;;;;;;;20.99;55.97;101322.88;5114107;28;20023;-62
2023/06/10 03:09:20;;;;;;;11.63;8.80;;;;;;;20.87;56.60;101323.16;5114003;28;20066;-62
2023/06/10 03:11:45;;;;;;;11.05;9.48;;;;;;;20.87;56.55;101328.53;5113998;28;20544;-62
2023/06/10 03:14:11;;;;;;;14.30;9.07;;;;;;;20.89;56.40;101329.38;5113684;28;20048;-62
2023/06/10 03:16:40;;;;;;;13.60;9.40;;;;;;;20.90;56.35;101325.78;5113430;28;20070;-62
2023/06/10 03:19:07;;;;;;;13.95;9.60;;;;;;;20.85;56.50;101324.97;5113887;28;20106;-62
2023/06/10 03:21:32;;;;;;;12.23;9.10;;;;;;;20.86;56.66;101335.72;5094702;28;20656;-62
2023/06/10 03:23:58;;;;;;;11.90;9.60;;;;;;;20.81;56.77;101325.97;5113428;28;20051;-63
2023/06/10 03:26:23;;;;;;;13.27;9.80;;;;;;;20.77;56.90;101325.19;5113886;28;20058;-62
2023/06/10 03:28:49;;;;;;;12.50;9.95;;;;;;;20.75;56.80;101330.56;5095190;28;20392;-62
2023/06/10 03:31:16;;;;;;;11.57;9.90;;;;;;;20.69;57.16;101332.53;5113446;28;20035;-63
2023/06/10 03:33:42;;;;;;;13.85;9.82;;;;;;;20.68;57.44;101341.50;5113637;28;20143;-62
2023/06/10 03:36:07;;;;;;;11.27;10.00;;;;;;;20.60;57.78;101338.09;5113580;28;20481;-62
2023/06/10 03:38:33;;;;;;;13.52;9.85;;;;;;;20.61;57.41;101342.56;5113344;28;20059;-62
2023/06/10 03:40:58;;;;;;;13.68;9.98;;;;;;;20.53;57.90;101340.06;5113481;28;20069;-65
2023/06/10 03:43:23;;;;;;;14.95;9.88;;;;;;;20.52;58.05;101338.28;5113293;28;20055;-61
2023/06/10 03:45:49;;;;;;;15.40;10.35;;;;;;;20.57;57.75;101349.81;5113362;28;20028;-62
2023/06/10 03:48:15;;;;;;;13.02;9.50;;;;;;;20.52;57.93;101351.72;5081354;28;20035;-62
2023/06/10 03:50:40;;;;;;;14.55;10.40;;;;;;;20.55;58.14;101348.94;5093184;28;20081;-62
2023/06/10 03:53:06;;;;;;;13.95;9.90;;;;;;;20.58;58.07;101353.38;5092869;28;20012;-62
2023/06/10 03:55:31;;;;;;;13.15;10.45;;;;;;;20.49;58.31;101349.09;5092880;28;20113;-62
2023/06/10 03:57:57;;;;;;;15.07;10.90;;;;;;;20.50;58.35;101351.72;5092766;28;20092;-62
2023/06/10 04:00:22;;;;;;;16.75;10.60;;;;;;;20.48;58.22;101353.59;5092777;28;20031;-62
2023/06/10 04:02:51;;;;;;;12.77;10.35;;;;;;;20.44;58.46;101346.47;5092940;28;20024;-62
2023/06/10 04:05:18;;;;;;;11.93;9.95;;;;;;;20.46;58.75;101349.13;5093005;28;20052;-62
2023/06/10 04:07:44;;;;;;;13.52;10.20;;;;;;;20.45;58.66;101350.94;5092930;28;20389;-62
2023/06/10 04:10:11;;;;;;;14.77;10.63;;;;;;;20.41;58.71;101351.91;5092515;28;20466;-62
2023/06/10 04:12:37;;;;;;;12.13;10.05;;;;;;;20.39;58.65;101352.88;5092951;28;20024;-62
2023/06/10 04:15:04;;;;;;;16.20;10.93;;;;;;;20.36;58.80;101344.88;5092856;28;20024;-62
2023/06/10 04:17:29;;;;;;;14.02;10.43;;;;;;;20.37;58.88;101352.00;5092464;28;20031;-62
2023/06/10 04:19:55;;;;;;;14.50;10.70;;;;;;;20.37;58.77;101352.91;5092902;28;20029;-62
2023/06/10 04:22:21;;;;;;;12.13;10.13;;;;;;;20.32;59.06;101356.59;5092348;28;20028;-62
2023/06/10 04:24:46;;;;;;;12.85;10.50;;;;;;;20.33;58.93;101359.25;5092375;28;20044;-62
2023/06/10 04:27:12;;;;;;;13.07;10.13;;;;;;;20.28;59.24;101361.16;5092573;28;20122;-62
2023/06/10 04:29:37;;;;;;;16.75;10.32;;;;;;;20.33;59.20;101367.28;5092685;28;20028;-62
2023/06/10 04:32:05;;;;;;;14.93;9.98;;;;;;;20.38;58.61;101377.94;5075180;28;20025;-62
2023/06/10 04:34:30;;;;;;;15.00;10.07;;;;;;;20.31;58.79;101373.63;5096566;28;20107;-62
2023/06/10 04:36:56;;;;;;;13.10;10.30;;;;;;;20.34;58.94;101387.88;5096208;28;20111;-62
2023/06/10 04:39:22;;;;;;;12.88;9.88;;;;;;;20.36;59.11;101379.78;5078230;28;20111;-62
2023/06/10 04:41:47;;;;;;;13.05;9.73;;;;;;;20.41;58.79;101372.50;5096398;28;20039;-62
2023/06/10 04:44:13;;;;;;;15.13;10.10;;;;;;;20.40;58.57;101376.13;5096061;28;20032;-62
2023/06/10 04:46:39;;;;;;;13.90;10.05;;;;;;;20.38;58.77;101380.63;5095955;28;20040;-62
2023/06/10 04:49:05;;;;;;;13.70;9.90;;;;;;;20.41;58.51;101381.44;5078130;28;20047;-62
2023/06/10 04:51:31;;;;;;;14.38;9.57;;;;;;;20.38;58.76;101377.94;5095940;28;20017;-62
2023/06/10 04:53:57;;;;;;;13.75;10.18;;;;;;;20.37;58.66;101379.72;5096179;28;20035;-62
2023/06/10 04:56:22;;;;;;;15.27;9.30;;;;;;;20.39;58.72;101377.91;5095846;28;20032;-62
2023/06/10 04:58:48;;;;;;;14.15;9.23;;;;;;;20.43;58.79;101378.75;5095740;28;20034;-62
2023/06/10 05:01:13;;;;;;;15.60;9.93;;;;;;;20.49;57.98;101378.63;5106025;28;20075;-62
2023/06/10 05:03:39;;;;;;;13.20;9.43;;;;;;;20.50;58.13;101377.69;5115940;28;20110;-62
2023/06/10 05:06:04;;;;;;;16.35;9.20;;;;;;;20.60;57.88;101381.97;5116410;28;20160;-62
2023/06/10 05:08:30;;;;;;;15.00;9.50;;;;;;;20.67;57.76;101380.00;5116366;28;20495;-62
2023/06/10 05:10:55;;;;;;;12.23;9.40;;;;;;;20.72;57.42;101388.84;5115745;28;20500;-62
2023/06/10 05:13:20;;;;;;;13.77;9.48;;;;;;;20.80;57.33;101377.94;5115919;28;20102;-62
2023/06/10 05:15:46;;;;;;;12.93;9.25;;;;;;;20.88;57.17;101384.03;5115911;28;20027;-62
2023/06/10 05:18:12;;;;;;;17.35;9.48;;;;;;;20.96;57.22;101384.72;5116050;28;20036;-62
2023/06/10 05:20:38;;;;;;;14.18;9.32;;;;;;;21.05;56.64;101383.63;5116121;28;20020;-62
2023/06/10 05:23:03;;;;;;;13.88;9.70;;;;;;;21.10;56.78;101381.69;5115508;28;20051;-61
2023/06/10 05:25:31;;;;;;;13.73;9.18;;;;;;;21.25;56.36;101382.22;5115691;28;20023;-62
2023/06/10 05:27:56;;;;;;;13.55;8.88;;;;;;;21.32;56.00;101379.41;5115729;28;20403;-62
2023/06/10 05:30:24;;;;;;;11.82;8.95;;;;;;;21.43;55.74;101385.41;5115554;28;20111;-62
2023/06/10 05:32:52;;;;;;;13.73;8.70;;;;;;;21.56;55.24;101375.19;5115675;28;20107;-62
2023/06/10 05:35:18;;;;;;;13.25;9.25;;;;;;;21.54;55.20;101382.41;5115821;28;20024;-62
2023/06/10 05:37:44;;;;;;;12.98;9.25;;;;;;;21.58;55.06;101382.28;5097189;28;20471;-62
2023/06/10 05:40:10;;;;;;;14.05;9.05;;;;;;;21.71;54.70;101391.81;5115410;28;20095;-62
2023/06/10 05:42:36;;;;;;;14.00;9.40;;;;;;;21.80;54.27;101385.31;5115650;28;20081;-62
2023/06/10 05:45:02;;;;;;;12.30;8.98;;;;;;;21.93;54.31;101381.38;5096448;28;20027;-62
2023/06/10 05:47:27;;;;;;;12.48;8.85;;;;;;;22.09;53.99;101389.88;5115115;28;20060;-62
2023/06/10 05:49:53;;;;;;;13.10;9.02;;;;;;;22.23;52.83;101387.72;5096964;28;20100;-62
2023/06/10 05:52:18;;;;;;;15.15;9.57;;;;;;;22.32;53.21;101391.94;5115200;28;20106;-62
2023/06/10 05:54:44;;;;;;;11.93;8.90;;;;;;;22.45;53.17;101396.03;5115082;28;20106;-62
2023/06/10 05:57:10;;;;;;;11.82;8.70;;;;;;;22.55;52.79;101388.56;5115093;28;20020;-62
2023/06/10 05:59:35;;;;;;;13.60;9.55;;;;;;;22.70;52.37;101393.50;5115251;28;20384;-62
2023/06/10 06:02:01;;;;;;;14.90;8.85;;;;;;;22.78;51.71;101386.97;5115286;28;20028;-62
2023/06/10 06:04:26;;;;;;;12.13;9.60;;;;;;;22.89;51.22;101395.59;5114913;28;20099;-62
2023/06/10 06:06:52;;;;;;;16.25;9.52;;;;;;;22.98;51.35;101398.91;5114875;28;20549;-62
2023/06/10 06:09:17;;;;;;;12.63;8.82;;;;;;;23.08;50.94;101401.31;5114574;28;20028;-63
2023/06/10 06:11:43;;;;;;;18.83;9.45;;;;;;;23.16;50.36;101388.47;5115063;28;20032;-62
2023/06/10 06:14:08;;;;;;;12.80;8.55;;;;;;;23.15;49.89;101384.00;5114775;28;20031;-62
2023/06/10 06:16:33;;;;;;;16.45;9.05;;;;;;;23.27;50.27;101397.09;5114498;28;20473;-61
2023/06/10 06:18:59;;;;;;;14.25;9.45;;;;;;;23.42;49.87;101387.59;5114898;28;20039;-62
2023/06/10 06:21:24;;;;;;;12.90;8.77;;;;;;;23.67;49.57;101395.75;5114874;28;20032;-62
2023/06/10 06:23:50;;;;;;;13.00;9.25;;;;;;;23.74;49.08;101395.50;5114289;28;20055;-62
2023/06/10 06:26:15;;;;;;;15.75;9.18;;;;;;;23.95;49.00;101401.06;5114805;28;20066;-62
2023/06/10 06:28:41;;;;;;;15.00;9.13;;;;;;;24.16;48.07;101397.59;5114407;28;20385;-62
2023/06/10 06:31:07;;;;;;;16.42;9.68;;;;;;;24.24;47.92;101392.78;5114736;28;20390;-62
2023/06/10 06:33:32;;;;;;;17.83;9.20;;;;;;;24.35;47.16;101394.19;5114519;28;20030;-62
2023/06/10 06:36:00;;;;;;;14.23;9.18;;;;;;;24.29;47.50;101403.41;5114506;28;20024;-62
2023/06/10 06:38:26;;;;;;;19.95;9.25;;;;;;;24.39;47.15;101407.56;5114201;28;20031;-62
2023/06/10 06:40:51;;;;;;;13.98;9.30;;;;;;;24.43;46.97;101400.22;5095801;28;20057;-62
2023/06/10 06:43:18;;;;;;;13.18;8.52;;;;;;;24.65;46.31;101409.25;5114437;28;20047;-62
2023/06/10 06:45:46;;;;;;;14.18;9.30;;;;;;;24.79;45.72;101407.84;5114405;28;20046;-62
2023/06/10 06:48:12;;;;;;;12.40;8.68;;;;;;;24.92;45.76;101403.69;5113975;28;20032;-62
2023/06/10 06:50:37;;;;;;;12.23;8.57;;;;;;;25.15;44.85;101389.28;5114040;28;20028;-62
2023/06/10 06:53:04;;;;;;;10.75;8.35;;;;;;;25.34;44.55;101397.50;5113991;28;20031;-62
2023/06/10 06:55:29;;;;;;;12.30;8.60;;;;;;;25.44;43.23;101407.91;5113937;28;20028;-62
2023/06/10 06:57:55;;;;;;;13.23;8.07;;;;;;;25.56;43.27;101408.31;5113850;28;20069;-62
2023/06/10 07:00:21;;;;;;;12.13;8.70;;;;;;;25.58;42.73;101401.91;5114160;28;20024;-63
2023/06/10 07:02:46;;;;;;;12.75;8.30;;;;;;;25.71;42.41;101410.38;5113857;28;20485;-62
2023/06/10 07:05:12;;;;;;;14.45;8.00;;;;;;;25.97;42.39;101407.41;5113783;28;20031;-62
2023/06/10 07:07:37;;;;;;;12.98;8.45;;;;;;;26.11;42.50;101403.22;5113643;28;20027;-62
2023/06/10 07:10:03;;;;;;;13.65;8.45;;;;;;;26.32;42.47;101409.47;5113600;28;20074;-62
2023/06/10 07:12:28;;;;;;;11.35;7.90;;;;;;;26.50;41.42;101413.19;5113649;28;20480;-62
2023/06/10 07:14:53;;;;;;;12.88;8.00;;;;;;;26.66;40.74;101417.84;5113559;28;20354;-63
2023/06/10 07:17:19;;;;;;;18.90;8.30;;;;;;;26.63;40.99;101417.09;5113460;28;20069;-62
2023/06/10 07:19:45;;;;;;;16.65;8.48;;;;;;;26.70;41.11;101414.03;5113527;28;20023;-62
2023/06/10 07:22:11;;;;;;;10.40;7.97;;;;;;;26.79;40.42;101414.53;5113545;28;20042;-62
2023/06/10 07:24:36;;;;;;;11.70;7.45;;;;;;;27.02;39.87;101421.56;5113220;28;20489;-62
2023/06/10 07:27:02;;;;;;;10.60;7.85;;;;;;;27.04;39.63;101416.94;5113755;28;20035;-62
2023/06/10 07:29:27;;;;;;;12.50;7.95;;;;;;;27.17;38.95;101426.28;5113471;28;20016;-62
2023/06/10 07:31:53;;;;;;;13.25;7.55;;;;;;;27.33;38.69;101419.13;5113219;28;20065;-62
2023/06/10 07:34:18;;;;;;;14.63;8.15;;;;;;;27.43;38.79;101423.13;5113379;28;20023;-62
2023/06/10 07:36:44;;;;;;;12.23;7.47;;;;;;;27.63;38.25;101415.81;5113375;28;20223;-62
2023/06/10 07:39:10;;;;;;;14.40;7.47;;;;;;;27.78;38.73;101417.75;5113035;28;20071;-62
2023/06/10 07:41:35;;;;;;;14.65;7.72;;;;;;;27.95;36.97;101422.31;5113166;28;20111;-62
2023/06/10 07:44:01;;;;;;;17.52;7.78;;;;;;;27.90;37.77;101428.00;5113238;28;20032;-62
2023/06/10 07:46:27;;;;;;;15.32;7.15;;;;;;;27.82;38.49;101419.34;5113174;28;20028;-62
2023/06/10 07:48:53;;;;;;;13.02;7.20;;;;;;;28.05;36.45;101420.88;5113323;28;20059;-63
2023/06/10 07:51:19;;;;;;;10.27;6.93;;;;;;;28.24;37.15;101425.31;5113189;28;20027;-62
2023/06/10 07:53:44;;;;;;;16.88;6.90;;;;;;;28.33;36.81;101420.25;5113202;28;20042;-62
2023/06/10 07:56:10;;;;;;;10.00;6.75;;;;;;;28.59;36.03;101421.56;5112953;28;20115;-62
2023/06/10 07:58:35;;;;;;;11.32;7.00;;;;;;;28.66;36.33;101425.72;5113375;28;20069;-62
2023/06/10 08:01:00;;;;;;;12.60;6.75;;;;;;;28.99;35.92;101413.91;5113039;28;20118;-63
2023/06/10 08:03:26;;;;;;;9.68;6.80;;;;;;;29.16;35.36;101422.00;5113175;28;20024;-64
2023/06/10 08:05:51;;;;;;;13.77;6.43;;;;;;;29.25;34.46;101423.31;5113199;28;20582;-62
2023/06/10 08:08:17;;;;;;;11.05;7.40;;;;;;;29.29;34.39;101415.81;5116117;28;20023;-63
2023/06/10 08:10:42;;;;;;;14.50;6.90;;;;;;;29.38;34.93;101418.03;5116832;28;20024;-63
2023/06/10 08:13:08;;;;;;;11.68;6.45;;;;;;;29.48;34.42;101415.63;5117005;28;20092;-62
2023/06/10 08:15:34;;;;;;;9.93;6.20;;;;;;;29.33;34.21;101414.69;5116947;28;20051;-62
2023/06/10 08:18:00;;;;;;;9.95;6.30;;;;;;;29.52;34.22;101417.22;5117238;28;20051;-63
2023/06/10 08:20:25;;;;;;;9.93;6.60;;;;;;;29.61;33.44;101413.97;5117296;28;20122;-62
2023/06/10 08:22:51;;;;;;;12.73;6.25;;;;;;;29.88;32.85;101419.56;5116863;28;20047;-63
2023/06/10 08:25:16;;;;;;;11.27;6.30;;;;;;;29.93;31.40;101426.50;5116734;28;20027;-62
2023/06/10 08:27:42;;;;;;;10.75;5.97;;;;;;;30.02;32.35;101416.91;5116714;28;20028;-62
2023/06/10 08:30:09;;;;;;;9.32;6.10;;;;;;;30.15;32.51;101420.66;5116659;28;20026;-62
2023/06/10 08:32:35;;;;;;;10.75;6.20;;;;;;;30.18;31.84;101417.72;5116835;28;20106;-62
2023/06/10 08:35:00;;;;;;;10.77;6.50;;;;;;;30.22;32.07;101425.72;5110017;28;20123;-63
2023/06/10 08:37:26;;;;;;;9.65;6.00;;;;;;;30.35;31.99;101416.66;5116083;28;20063;-63
2023/06/10 08:39:51;;;;;;;9.18;5.80;;;;;;;30.41;32.90;101421.72;5116021;28;20028;-63
2023/06/10 08:42:20;;;;;;;8.45;5.70;;;;;;;30.54;31.49;101423.69;5116350;28;20062;-63
2023/06/10 08:44:46;;;;;;;13.25;5.72;;;;;;;30.76;31.29;101423.22;5115163;28;20550;-63
2023/06/10 08:47:16;;;;;;;12.02;6.28;;;;;;;30.98;30.08;101428.13;5115358;28;20034;-62
2023/06/10 08:49:45;;;;;;;8.88;5.55;;;;;;;31.18;30.47;101431.31;5116251;28;20028;-62
2023/06/10 08:52:19;;;;;;;11.50;5.85;;;;;;;31.18;30.57;101422.25;5098385;28;20023;-62
2023/06/10 08:54:50;;;;;;;15.95;6.85;;;;;;;31.27;30.19;101426.22;5116341;28;20027;-62
2023/06/10 08:57:20;;;;;;;9.00;6.10;;;;;;;31.47;29.81;101425.75;5116368;28;20025;-62
2023/06/10 08:59:46;;;;;;;10.05;5.85;;;;;;;31.55;29.23;101425.25;5116247;28;20036;-62
2023/06/10 09:02:13;;;;;;;11.02;5.47;;;;;;;31.83;28.86;101422.41;5115980;28;20546;-63
2023/06/10 09:04:39;;;;;;;8.55;5.53;;;;;;;31.94;29.45;101424.38;5115977;28;20031;-62
2023/06/10 09:07:05;;;;;;;9.90;5.90;;;;;;;32.11;28.28;101418.59;5116097;28;20031;-63
2023/06/10 09:09:32;;;;;;;9.25;6.22;;;;;;;31.98;28.08;101411.38;5115959;28;20028;-62
2023/06/10 09:11:58;;;;;;;7.88;5.70;;;;;;;31.92;28.44;101420.88;5115990;28;20058;-63
2023/06/10 09:14:24;;;;;;;8.73;5.40;;;;;;;32.09;28.62;101419.69;5115947;28;20031;-63
2023/06/10 09:16:49;;;;;;;14.10;5.45;;;;;;;32.66;27.67;101419.25;5115826;28;20484;-63
2023/06/10 09:19:16;;;;;;;17.55;5.80;;;;;;;32.56;27.31;101415.44;5114666;28;20016;-62
2023/06/10 09:21:42;;;;;;;8.55;5.47;;;;;;;32.93;27.32;101407.28;5115805;28;20039;-63
2023/06/10 09:24:08;;;;;;;10.55;5.97;;;;;;;32.96;26.29;101404.31;5115522;28;20043;-63
2023/06/10 09:26:33;;;;;;;9.57;5.20;;;;;;;33.10;26.65;101405.00;5115698;28;20047;-63
2023/06/10 09:29:04;;;;;;;14.75;5.72;;;;;;;33.44;26.80;101407.97;5115612;28;20039;-63
2023/06/10 09:31:30;;;;;;;12.20;5.65;;;;;;;33.39;25.38;101410.16;5115576;28;20532;-63
2023/06/10 09:34:09;;;;;;;9.82;5.60;;;;;;;33.34;26.81;101405.03;5115666;28;20096;-63
2023/06/10 09:36:35;;;;;;;10.75;5.57;;;;;;;33.42;26.20;101404.44;5115524;28;20365;-63
2023/06/10 09:39:01;;;;;;;9.73;5.10;;;;;;;33.58;25.77;101404.19;5115429;28;20028;-63
2023/06/10 09:41:39;;;;;;;9.35;5.50;;;;;;;33.61;24.83;101414.88;5115585;28;20027;-63
2023/06/10 09:44:18;;;;;;;7.13;5.35;;;;;;;33.71;24.75;101409.59;5115770;28;20081;-63
2023/06/10 09:46:47;;;;;;;10.10;5.75;;;;;;;33.79;24.22;101415.31;5115517;28;20035;-60
2023/06/10 09:49:13;;;;;;;11.65;5.53;;;;;;;33.89;24.70;101411.75;5115532;28;20488;-64
2023/06/10 09:51:49;;;;;;;10.05;5.10;;;;;;;34.22;24.77;101404.63;5115288;28;20055;-62
2023/06/10 09:54:15;;;;;;;9.43;5.50;;;;;;;34.19;25.33;101404.88;5115241;28;20043;-63
2023/06/10 09:56:42;;;;;;;14.73;5.70;;;;;;;34.31;24.94;101398.38;5115128;28;20023;-62
2023/06/10 09:59:08;;;;;;;9.98;5.90;;;;;;;34.37;25.82;101397.88;5115421;28;20031;-63
2023/06/10 10:01:34;;;;;;;11.52;5.55;;;;;;;34.34;26.36;101391.75;5115313;28;20491;-63
2023/06/10 10:04:01;;;;;;;13.73;5.70;;;;;;;34.69;24.97;101391.69;5112732;28;20549;-63
2023/06/10 10:06:27;;;;;;;10.70;5.60;;;;;;;34.77;25.04;101397.38;5100291;28;20060;-62
2023/06/10 10:08:52;;;;;;;9.45;5.50;;;;;;;35.01;25.17;101390.91;5094541;28;20374;-63
2023/06/10 10:11:21;;;;;;;10.15;6.10;;;;;;;35.17;24.66;101393.25;5094466;28;20024;-60
2023/06/10 10:13:48;;;;;;;11.15;5.25;;;;;;;35.20;25.30;101391.06;5094188;28;20504;-59
2023/06/10 10:16:19;;;;;;;9.45;5.65;;;;;;;35.55;24.29;101390.00;5094466;28;20062;-64
2023/06/10 10:18:53;;;;;;;10.65;5.78;;;;;;;35.61;24.15;101383.97;5094177;28;20028;-63
2023/06/10 10:21:23;;;;;;;13.07;5.90;;;;;;;35.69;24.04;101392.41;5094193;28;20058;-62
2023/06/10 10:23:56;;;;;;;9.43;5.18;;;;;;;35.97;23.91;101385.38;5093949;28;20081;-61
2023/06/10 10:26:22;;;;;;;8.18;5.43;;;;;;;36.03;24.47;101386.75;5094217;28;20551;-61
2023/06/10 10:28:57;;;;;;;9.15;5.20;;;;;;;35.92;23.77;101378.53;5094112;28;20020;-62
2023/06/10 10:31:23;;;;;;;7.80;5.70;;;;;;;35.95;22.88;101375.50;5093804;28;20545;-61
2023/06/10 10:33:56;;;;;;;9.23;5.50;;;;;;;36.00;23.34;101382.38;5093839;28;20024;-62
2023/06/10 10:36:22;;;;;;;10.80;5.70;;;;;;;36.03;22.57;101373.84;5093928;28;20107;-62
2023/06/10 10:38:49;;;;;;;11.02;5.70;;;;;;;36.02;22.44;101388.63;5093885;28;20474;-62
2023/06/10 10:41:15;;;;;;;8.45;5.28;;;;;;;36.21;22.80;101367.72;5093728;28;20198;-61
2023/06/10 10:43:43;;;;;;;9.80;5.90;;;;;;;36.29;23.18;101374.28;5094010;28;20019;-62
2023/06/10 10:46:12;;;;;;;11.20;7.00;;;;;;;36.53;22.62;101371.22;5093587;28;20031;-61
2023/06/10 10:48:41;;;;;;;9.43;5.13;;;;;;;36.99;21.47;101369.78;5093457;28;20024;-62
2023/06/10 10:51:07;;;;;;;9.23;5.60;;;;;;;36.57;21.07;101380.97;5093815;28;20086;-62
2023/06/10 10:53:32;;;;;;;7.75;5.05;;;;;;;36.47;21.58;101366.28;5093605;28;20032;-61
2023/06/10 10:56:14;;;;;;;10.05;5.45;;;;;;;36.42;22.02;101371.28;5093872;28;20028;-61
2023/06/10 10:58:40;;;;;;;8.82;5.50;;;;;;;36.28;22.05;101361.53;5093604;28;20032;-62
2023/06/10 11:01:14;;;;;;;10.95;5.60;;;;;;;36.28;21.72;101367.03;5093535;28;20088;-62
2023/06/10 11:03:49;;;;;;;8.95;5.07;;;;;;;35.98;22.52;101369.78;5093192;28;20390;-62
2023/06/10 11:06:16;;;;;;;8.13;5.70;;;;;;;35.94;21.92;101363.63;5093455;28;20039;-61
2023/06/10 11:08:42;;;;;;;7.63;5.15;;;;;;;36.17;22.29;101352.50;5093323;28;20545;-62
2023/06/10 11:11:21;;;;;;;8.45;5.30;;;;;;;36.18;22.07;101352.34;5093154;28;20109;-62
2023/06/10 11:14:07;;;;;;;8.40;4.95;;;;;;;36.20;22.90;101350.34;5093668;28;20115;-62
2023/06/10 11:16:42;;;;;;;8.60;5.20;;;;;;;36.38;21.88;101358.81;5093311;28;20043;-62